sensor_id;sensor_type;location;lat;lon;timestamp;temperature;humidity
4856;DHT22;2442;48.676;7.986;2022-12-18T00:02:12;-6.30;99.90
4856;DHT22;2442;48.676;7.986;2022-12-18T00:04:40;-6.40;99.90
4856;DHT22;2442;48.676;7.986;2022-12-18T00:07:07;-6.50;99.90
4856;DHT22;2442;48.676;7.986;2022-12-18T00:09:34;-6.40;99.90
4856;DHT22;2442;48.676;7.986;2022-12-18T00:12:01;-6.50;99.90
4856;DHT22;2442;48.676;7.986;2022-12-18T00:14:28;-6.50;99.90
4856;DHT22;2442;48.676;7.986;2022-12-18T00:16:55;-6.50;99.90
4856;DHT22;2442;48.676;7.986;2022-12-18T00:19:24;-6.50;99.90
4856;DHT22;2442;48.676;7.986;2022-12-18T00:21:53;-6.60;99.90
4856;DHT22;2442;48.676;7.986;2022-12-18T00:24:20;-6.60;99.90
4856;DHT22;2442;48.676;7.986;2022-12-18T00:26:47;-6.60;99.90
4856;DHT22;2442;48.676;7.986;2022-12-18T00:29:14;-6.60;99.90
4856;DHT22;2442;48.676;7.986;2022-12-18T00:31:41;-6.60;99.90
4856;DHT22;2442;48.676;7.986;2022-12-18T00:34:10;-6.50;99.90
4856;DHT22;2442;48.676;7.986;2022-12-18T00:36:38;-6.40;99.90
4856;DHT22;2442;48.676;7.986;2022-12-18T00:39:07;-6.40;99.90
4856;DHT22;2442;48.676;7.986;2022-12-18T00:41:34;-6.30;99.90
4856;DHT22;2442;48.676;7.986;2022-12-18T00:44:18;-6.40;99.90
4856;DHT22;2442;48.676;7.986;2022-12-18T00:46:46;-6.60;99.90
4856;DHT22;2442;48.676;7.986;2022-12-18T00:49:13;-6.60;99.90
4856;DHT22;2442;48.676;7.986;2022-12-18T00:51:41;-6.50;99.90
4856;DHT22;2442;48.676;7.986;2022-12-18T00:54:09;-6.60;99.90
4856;DHT22;2442;48.676;7.986;2022-12-18T00:56:36;-6.50;99.90
4856;DHT22;2442;48.676;7.986;2022-12-18T00:59:04;-6.50;99.90
4856;DHT22;2442;48.676;7.986;2022-12-18T01:01:31;-6.40;99.90
4856;DHT22;2442;48.676;7.986;2022-12-18T01:04:00;-6.60;99.90
4856;DHT22;2442;48.676;7.986;2022-12-18T01:06:27;-6.60;99.90
4856;DHT22;2442;48.676;7.986;2022-12-18T01:08:54;-6.60;99.90
4856;DHT22;2442;48.676;7.986;2022-12-18T01:11:22;-6.70;99.90
4856;DHT22;2442;48.676;7.986;2022-12-18T01:13:49;-6.70;99.90
4856;DHT22;2442;48.676;7.986;2022-12-18T01:16:18;-6.70;99.90
4856;DHT22;2442;48.676;7.986;2022-12-18T01:18:45;-6.70;99.90
4856;DHT22;2442;48.676;7.986;2022-12-18T01:21:15;-6.70;99.90
4856;DHT22;2442;48.676;7.986;2022-12-18T01:23:42;-6.80;99.90
4856;DHT22;2442;48.676;7.986;2022-12-18T01:26:10;-6.70;99.90
4856;DHT22;2442;48.676;7.986;2022-12-18T01:28:39;-6.70;99.90
4856;DHT22;2442;48.676;7.986;2022-12-18T01:31:11;-6.70;99.90
4856;DHT22;2442;48.676;7.986;2022-12-18T01:33:38;-6.70;99.90
4856;DHT22;2442;48.676;7.986;2022-12-18T01:36:06;-6.70;99.90
4856;DHT22;2442;48.676;7.986;2022-12-18T01:38:33;-6.70;99.90
4856;DHT22;2442;48.676;7.986;2022-12-18T01:41:00;-6.60;99.90
4856;DHT22;2442;48.676;7.986;2022-12-18T01:43:49;-6.60;99.90
4856;DHT22;2442;48.676;7.986;2022-12-18T01:46:18;-6.70;99.90
4856;DHT22;2442;48.676;7.986;2022-12-18T01:48:48;-6.70;99.90
4856;DHT22;2442;48.676;7.986;2022-12-18T01:51:16;-6.60;99.90
4856;DHT22;2442;48.676;7.986;2022-12-18T01:53:44;-6.60;99.90
4856;DHT22;2442;48.676;7.986;2022-12-18T01:56:13;-6.60;99.90
4856;DHT22;2442;48.676;7.986;2022-12-18T01:58:48;-6.60;99.90
4856;DHT22;2442;48.676;7.986;2022-12-18T02:01:17;-6.60;99.90
4856;DHT22;2442;48.676;7.986;2022-12-18T02:03:44;-6.60;99.90
4856;DHT22;2442;48.676;7.986;2022-12-18T02:06:15;-6.60;99.90
4856;DHT22;2442;48.676;7.986;2022-12-18T02:08:50;-6.60;99.90
4856;DHT22;2442;48.676;7.986;2022-12-18T02:11:27;-6.70;99.90
4856;DHT22;2442;48.676;7.986;2022-12-18T02:14:04;-6.70;99.90
4856;DHT22;2442;48.676;7.986;2022-12-18T02:16:38;-6.70;99.90
4856;DHT22;2442;48.676;7.986;2022-12-18T02:19:12;-6.80;99.90
4856;DHT22;2442;48.676;7.986;2022-12-18T02:21:49;-6.80;99.90
4856;DHT22;2442;48.676;7.986;2022-12-18T02:24:29;-6.70;99.90
4856;DHT22;2442;48.676;7.986;2022-12-18T02:27:02;-6.80;99.90
4856;DHT22;2442;48.676;7.986;2022-12-18T02:29:33;-6.70;99.90
4856;DHT22;2442;48.676;7.986;2022-12-18T02:32:05;-6.70;99.90
4856;DHT22;2442;48.676;7.986;2022-12-18T02:34:36;-6.70;99.90
4856;DHT22;2442;48.676;7.986;2022-12-18T02:37:06;-6.70;99.90
4856;DHT22;2442;48.676;7.986;2022-12-18T02:39:36;-6.70;99.90
4856;DHT22;2442;48.676;7.986;2022-12-18T02:42:04;-6.70;99.90
4856;DHT22;2442;48.676;7.986;2022-12-18T02:44:33;-6.70;99.90
4856;DHT22;2442;48.676;7.986;2022-12-18T02:47:01;-6.80;99.90
4856;DHT22;2442;48.676;7.986;2022-12-18T02:49:36;-6.80;99.90
4856;DHT22;2442;48.676;7.986;2022-12-18T02:52:13;-6.70;99.90
4856;DHT22;2442;48.676;7.986;2022-12-18T02:54:57;-6.80;99.90
4856;DHT22;2442;48.676;7.986;2022-12-18T02:57:34;-6.80;99.90
4856;DHT22;2442;48.676;7.986;2022-12-18T03:00:05;-6.80;99.90
4856;DHT22;2442;48.676;7.986;2022-12-18T03:02:38;-6.80;99.90
4856;DHT22;2442;48.676;7.986;2022-12-18T03:05:10;-6.70;99.90
4856;DHT22;2442;48.676;7.986;2022-12-18T03:07:42;-6.70;99.90
4856;DHT22;2442;48.676;7.986;2022-12-18T03:10:14;-6.60;99.90
4856;DHT22;2442;48.676;7.986;2022-12-18T03:12:48;-6.60;99.90
4856;DHT22;2442;48.676;7.986;2022-12-18T03:15:20;-6.60;99.90
4856;DHT22;2442;48.676;7.986;2022-12-18T03:17:54;-6.50;99.90
4856;DHT22;2442;48.676;7.986;2022-12-18T03:20:23;-6.60;99.90
4856;DHT22;2442;48.676;7.986;2022-12-18T03:22:55;-6.70;99.90
4856;DHT22;2442;48.676;7.986;2022-12-18T03:25:25;-6.70;99.90
4856;DHT22;2442;48.676;7.986;2022-12-18T03:27:57;-6.70;99.90
4856;DHT22;2442;48.676;7.986;2022-12-18T03:30:26;-6.70;99.90
4856;DHT22;2442;48.676;7.986;2022-12-18T03:33:00;-6.80;99.90
4856;DHT22;2442;48.676;7.986;2022-12-18T03:35:31;-6.70;99.90
4856;DHT22;2442;48.676;7.986;2022-12-18T03:37:59;-6.70;99.90
4856;DHT22;2442;48.676;7.986;2022-12-18T03:40:29;-6.80;99.90
4856;DHT22;2442;48.676;7.986;2022-12-18T03:43:03;-6.80;99.90
4856;DHT22;2442;48.676;7.986;2022-12-18T03:45:37;-6.80;99.90
4856;DHT22;2442;48.676;7.986;2022-12-18T03:48:08;-6.70;99.90
4856;DHT22;2442;48.676;7.986;2022-12-18T03:50:43;-6.70;99.90
4856;DHT22;2442;48.676;7.986;2022-12-18T03:53:20;-6.70;99.90
4856;DHT22;2442;48.676;7.986;2022-12-18T03:55:50;-6.70;99.90
4856;DHT22;2442;48.676;7.986;2022-12-18T03:58:20;-6.80;99.90
4856;DHT22;2442;48.676;7.986;2022-12-18T04:00:50;-6.80;99.90
4856;DHT22;2442;48.676;7.986;2022-12-18T04:03:19;-6.80;99.90
4856;DHT22;2442;48.676;7.986;2022-12-18T04:05:47;-6.70;99.90
4856;DHT22;2442;48.676;7.986;2022-12-18T04:08:16;-6.80;99.90
4856;DHT22;2442;48.676;7.986;2022-12-18T04:10:43;-6.80;99.90
4856;DHT22;2442;48.676;7.986;2022-12-18T04:13:10;-6.80;99.90
4856;DHT22;2442;48.676;7.986;2022-12-18T04:15:38;-6.80;99.90
4856;DHT22;2442;48.676;7.986;2022-12-18T04:18:06;-6.80;99.90
4856;DHT22;2442;48.676;7.986;2022-12-18T04:20:32;-6.80;99.90
4856;DHT22;2442;48.676;7.986;2022-12-18T04:22:59;-6.80;99.90
4856;DHT22;2442;48.676;7.986;2022-12-18T04:25:26;-6.80;99.90
4856;DHT22;2442;48.676;7.986;2022-12-18T04:27:53;-6.80;99.90
4856;DHT22;2442;48.676;7.986;2022-12-18T04:30:20;-6.80;99.90
4856;DHT22;2442;48.676;7.986;2022-12-18T04:32:48;-6.80;99.90
4856;DHT22;2442;48.676;7.986;2022-12-18T04:35:15;-6.80;99.90
4856;DHT22;2442;48.676;7.986;2022-12-18T04:37:42;-6.80;99.90
4856;DHT22;2442;48.676;7.986;2022-12-18T04:40:09;-6.80;99.90
4856;DHT22;2442;48.676;7.986;2022-12-18T04:42:36;-6.80;99.90
4856;DHT22;2442;48.676;7.986;2022-12-18T04:45:04;-6.80;99.90
4856;DHT22;2442;48.676;7.986;2022-12-18T04:47:31;-6.80;99.90
4856;DHT22;2442;48.676;7.986;2022-12-18T04:49:59;-6.70;99.90
4856;DHT22;2442;48.676;7.986;2022-12-18T04:52:26;-6.70;99.90
4856;DHT22;2442;48.676;7.986;2022-12-18T04:54:53;-6.70;99.90
4856;DHT22;2442;48.676;7.986;2022-12-18T04:57:20;-6.70;99.90
4856;DHT22;2442;48.676;7.986;2022-12-18T04:59:46;-6.70;99.90
4856;DHT22;2442;48.676;7.986;2022-12-18T05:02:13;-6.60;99.90
4856;DHT22;2442;48.676;7.986;2022-12-18T05:04:40;-6.60;99.90
4856;DHT22;2442;48.676;7.986;2022-12-18T05:07:08;-6.60;99.90
4856;DHT22;2442;48.676;7.986;2022-12-18T05:09:35;-6.60;99.90
4856;DHT22;2442;48.676;7.986;2022-12-18T05:12:02;-6.50;99.90
4856;DHT22;2442;48.676;7.986;2022-12-18T05:14:29;-6.60;99.90
4856;DHT22;2442;48.676;7.986;2022-12-18T05:16:56;-6.60;99.90
4856;DHT22;2442;48.676;7.986;2022-12-18T05:19:23;-6.60;99.90
4856;DHT22;2442;48.676;7.986;2022-12-18T05:21:49;-6.60;99.90
4856;DHT22;2442;48.676;7.986;2022-12-18T05:24:18;-6.50;99.90
4856;DHT22;2442;48.676;7.986;2022-12-18T05:26:44;-6.60;99.90
4856;DHT22;2442;48.676;7.986;2022-12-18T05:29:11;-6.70;99.90
4856;DHT22;2442;48.676;7.986;2022-12-18T05:31:38;-6.70;99.90
4856;DHT22;2442;48.676;7.986;2022-12-18T05:34:05;-6.70;99.90
4856;DHT22;2442;48.676;7.986;2022-12-18T05:36:32;-6.70;99.90
4856;DHT22;2442;48.676;7.986;2022-12-18T05:38:59;-6.70;99.90
4856;DHT22;2442;48.676;7.986;2022-12-18T05:41:28;-6.70;99.90
4856;DHT22;2442;48.676;7.986;2022-12-18T05:43:55;-6.70;99.90
4856;DHT22;2442;48.676;7.986;2022-12-18T05:46:22;-6.70;99.90
4856;DHT22;2442;48.676;7.986;2022-12-18T05:48:49;-6.70;99.90
4856;DHT22;2442;48.676;7.986;2022-12-18T05:51:18;-6.70;99.90
4856;DHT22;2442;48.676;7.986;2022-12-18T05:53:45;-6.70;99.90
4856;DHT22;2442;48.676;7.986;2022-12-18T05:56:15;-6.70;99.90
4856;DHT22;2442;48.676;7.986;2022-12-18T05:58:44;-6.70;99.90
4856;DHT22;2442;48.676;7.986;2022-12-18T06:01:14;-6.70;99.90
4856;DHT22;2442;48.676;7.986;2022-12-18T06:03:42;-6.70;99.90
4856;DHT22;2442;48.676;7.986;2022-12-18T06:06:16;-6.80;99.90
4856;DHT22;2442;48.676;7.986;2022-12-18T06:08:43;-6.70;99.90
4856;DHT22;2442;48.676;7.986;2022-12-18T06:11:10;-6.70;99.90
4856;DHT22;2442;48.676;7.986;2022-12-18T06:13:38;-6.70;99.90
4856;DHT22;2442;48.676;7.986;2022-12-18T06:16:07;-6.70;99.90
4856;DHT22;2442;48.676;7.986;2022-12-18T06:18:34;-6.70;99.90
4856;DHT22;2442;48.676;7.986;2022-12-18T06:21:01;-6.70;99.90
4856;DHT22;2442;48.676;7.986;2022-12-18T06:23:28;-6.60;99.90
4856;DHT22;2442;48.676;7.986;2022-12-18T06:25:55;-6.60;99.90
4856;DHT22;2442;48.676;7.986;2022-12-18T06:28:22;-6.60;99.90
4856;DHT22;2442;48.676;7.986;2022-12-18T06:30:49;-6.60;99.90
4856;DHT22;2442;48.676;7.986;2022-12-18T06:33:17;-6.50;99.90
4856;DHT22;2442;48.676;7.986;2022-12-18T06:35:44;-6.60;99.90
4856;DHT22;2442;48.676;7.986;2022-12-18T06:38:11;-6.60;99.90
4856;DHT22;2442;48.676;7.986;2022-12-18T06:40:38;-6.60;99.90
4856;DHT22;2442;48.676;7.986;2022-12-18T06:43:06;-6.60;99.90
4856;DHT22;2442;48.676;7.986;2022-12-18T06:45:33;-6.60;99.90
4856;DHT22;2442;48.676;7.986;2022-12-18T06:48:00;-6.60;99.90
4856;DHT22;2442;48.676;7.986;2022-12-18T06:50:28;-6.60;99.90
4856;DHT22;2442;48.676;7.986;2022-12-18T06:52:55;-6.60;99.90
4856;DHT22;2442;48.676;7.986;2022-12-18T06:55:22;-6.60;99.90
4856;DHT22;2442;48.676;7.986;2022-12-18T06:57:49;-6.60;99.90
4856;DHT22;2442;48.676;7.986;2022-12-18T07:00:16;-6.60;99.90
4856;DHT22;2442;48.676;7.986;2022-12-18T07:02:43;-6.60;99.90
4856;DHT22;2442;48.676;7.986;2022-12-18T07:05:10;-6.60;99.90
4856;DHT22;2442;48.676;7.986;2022-12-18T07:07:38;-6.60;99.90
4856;DHT22;2442;48.676;7.986;2022-12-18T07:10:05;-6.70;99.90
4856;DHT22;2442;48.676;7.986;2022-12-18T07:12:32;-6.70;99.90
4856;DHT22;2442;48.676;7.986;2022-12-18T07:14:59;-6.60;99.90
4856;DHT22;2442;48.676;7.986;2022-12-18T07:17:26;-6.70;99.90
4856;DHT22;2442;48.676;7.986;2022-12-18T07:19:53;-6.70;99.90
4856;DHT22;2442;48.676;7.986;2022-12-18T07:22:19;-6.60;99.90
4856;DHT22;2442;48.676;7.986;2022-12-18T07:24:48;-6.60;99.90
4856;DHT22;2442;48.676;7.986;2022-12-18T07:27:14;-6.60;99.90
4856;DHT22;2442;48.676;7.986;2022-12-18T07:29:41;-6.70;99.90
4856;DHT22;2442;48.676;7.986;2022-12-18T07:32:08;-6.60;99.90
4856;DHT22;2442;48.676;7.986;2022-12-18T07:34:35;-6.50;99.90
4856;DHT22;2442;48.676;7.986;2022-12-18T07:37:02;-6.50;99.90
4856;DHT22;2442;48.676;7.986;2022-12-18T07:39:29;-6.60;99.90
4856;DHT22;2442;48.676;7.986;2022-12-18T07:41:57;-6.60;99.90
4856;DHT22;2442;48.676;7.986;2022-12-18T07:44:47;-6.50;99.90
4856;DHT22;2442;48.676;7.986;2022-12-18T07:47:14;-6.50;99.90
4856;DHT22;2442;48.676;7.986;2022-12-18T07:49:41;-6.40;99.90
4856;DHT22;2442;48.676;7.986;2022-12-18T07:52:08;-6.30;99.90
4856;DHT22;2442;48.676;7.986;2022-12-18T07:54:38;-6.10;99.90
4856;DHT22;2442;48.676;7.986;2022-12-18T07:57:07;-6.20;99.90
4856;DHT22;2442;48.676;7.986;2022-12-18T07:59:34;-6.30;99.90
4856;DHT22;2442;48.676;7.986;2022-12-18T08:02:01;-6.30;99.90
4856;DHT22;2442;48.676;7.986;2022-12-18T08:04:28;-6.40;99.90
4856;DHT22;2442;48.676;7.986;2022-12-18T08:06:55;-6.60;99.90
4856;DHT22;2442;48.676;7.986;2022-12-18T08:09:22;-6.50;99.90
4856;DHT22;2442;48.676;7.986;2022-12-18T08:11:49;-6.40;99.90
4856;DHT22;2442;48.676;7.986;2022-12-18T08:14:17;-6.50;99.90
4856;DHT22;2442;48.676;7.986;2022-12-18T08:16:44;-6.40;99.90
4856;DHT22;2442;48.676;7.986;2022-12-18T08:19:10;-6.40;99.90
4856;DHT22;2442;48.676;7.986;2022-12-18T08:21:37;-6.40;99.90
4856;DHT22;2442;48.676;7.986;2022-12-18T08:24:05;-6.30;99.90
4856;DHT22;2442;48.676;7.986;2022-12-18T08:26:32;-6.30;99.90
4856;DHT22;2442;48.676;7.986;2022-12-18T08:29:00;-6.40;99.90
4856;DHT22;2442;48.676;7.986;2022-12-18T08:31:29;-6.40;99.90
4856;DHT22;2442;48.676;7.986;2022-12-18T08:33:56;-6.40;99.90
4856;DHT22;2442;48.676;7.986;2022-12-18T08:36:24;-6.40;99.90
4856;DHT22;2442;48.676;7.986;2022-12-18T08:38:52;-6.40;99.90
4856;DHT22;2442;48.676;7.986;2022-12-18T08:41:19;-6.40;99.90
4856;DHT22;2442;48.676;7.986;2022-12-18T08:43:46;-6.40;99.90
4856;DHT22;2442;48.676;7.986;2022-12-18T08:46:36;-6.50;99.90
4856;DHT22;2442;48.676;7.986;2022-12-18T08:49:04;-6.50;99.90
4856;DHT22;2442;48.676;7.986;2022-12-18T08:51:31;-6.40;99.90
4856;DHT22;2442;48.676;7.986;2022-12-18T08:53:58;-6.30;99.90
4856;DHT22;2442;48.676;7.986;2022-12-18T08:56:25;-6.40;99.90
4856;DHT22;2442;48.676;7.986;2022-12-18T08:58:52;-6.40;99.90
4856;DHT22;2442;48.676;7.986;2022-12-18T09:01:19;-6.50;99.90
4856;DHT22;2442;48.676;7.986;2022-12-18T09:03:48;-6.50;99.90
4856;DHT22;2442;48.676;7.986;2022-12-18T09:06:16;-6.50;99.90
4856;DHT22;2442;48.676;7.986;2022-12-18T09:08:43;-6.50;99.90
4856;DHT22;2442;48.676;7.986;2022-12-18T09:11:13;-6.40;99.90
4856;DHT22;2442;48.676;7.986;2022-12-18T09:13:40;-6.40;99.90
4856;DHT22;2442;48.676;7.986;2022-12-18T09:16:07;-6.40;99.90
4856;DHT22;2442;48.676;7.986;2022-12-18T09:18:35;-6.50;99.90
4856;DHT22;2442;48.676;7.986;2022-12-18T09:21:09;-6.50;99.90
4856;DHT22;2442;48.676;7.986;2022-12-18T09:23:36;-6.40;99.90
4856;DHT22;2442;48.676;7.986;2022-12-18T09:26:03;-6.40;99.90
4856;DHT22;2442;48.676;7.986;2022-12-18T09:28:30;-6.30;99.90
4856;DHT22;2442;48.676;7.986;2022-12-18T09:30:57;-6.30;99.90
4856;DHT22;2442;48.676;7.986;2022-12-18T09:33:24;-6.20;99.90
4856;DHT22;2442;48.676;7.986;2022-12-18T09:35:51;-6.20;99.90
4856;DHT22;2442;48.676;7.986;2022-12-18T09:38:20;-6.20;99.90
4856;DHT22;2442;48.676;7.986;2022-12-18T09:40:51;-6.30;99.90
4856;DHT22;2442;48.676;7.986;2022-12-18T09:43:21;-6.20;99.90
4856;DHT22;2442;48.676;7.986;2022-12-18T09:45:52;-6.30;99.90
4856;DHT22;2442;48.676;7.986;2022-12-18T09:48:23;-6.20;99.90
4856;DHT22;2442;48.676;7.986;2022-12-18T09:50:55;-6.10;99.90
4856;DHT22;2442;48.676;7.986;2022-12-18T09:53:27;-6.20;99.90
4856;DHT22;2442;48.676;7.986;2022-12-18T09:55:56;-6.10;99.90
4856;DHT22;2442;48.676;7.986;2022-12-18T09:58:27;-6.00;99.90
4856;DHT22;2442;48.676;7.986;2022-12-18T10:00:56;-6.00;99.90
4856;DHT22;2442;48.676;7.986;2022-12-18T10:03:23;-6.10;99.90
4856;DHT22;2442;48.676;7.986;2022-12-18T10:05:56;-6.20;99.90
4856;DHT22;2442;48.676;7.986;2022-12-18T10:08:33;-6.30;99.90
4856;DHT22;2442;48.676;7.986;2022-12-18T10:11:24;-6.30;99.90
4856;DHT22;2442;48.676;7.986;2022-12-18T10:13:56;-6.20;99.90
4856;DHT22;2442;48.676;7.986;2022-12-18T10:16:30;-6.20;99.90
4856;DHT22;2442;48.676;7.986;2022-12-18T10:19:06;-6.20;99.90
4856;DHT22;2442;48.676;7.986;2022-12-18T10:21:42;-6.20;99.90
4856;DHT22;2442;48.676;7.986;2022-12-18T10:24:20;-6.10;99.90
4856;DHT22;2442;48.676;7.986;2022-12-18T10:26:52;-6.00;99.90
4856;DHT22;2442;48.676;7.986;2022-12-18T10:29:20;-5.80;99.90
4856;DHT22;2442;48.676;7.986;2022-12-18T10:31:47;-6.10;99.90
4856;DHT22;2442;48.676;7.986;2022-12-18T10:34:14;-6.10;99.90
4856;DHT22;2442;48.676;7.986;2022-12-18T10:36:41;-6.00;99.90
4856;DHT22;2442;48.676;7.986;2022-12-18T10:39:21;-6.00;99.90
4856;DHT22;2442;48.676;7.986;2022-12-18T10:41:49;-6.20;99.90
4856;DHT22;2442;48.676;7.986;2022-12-18T10:44:18;-6.10;99.90
4856;DHT22;2442;48.676;7.986;2022-12-18T10:46:48;-6.00;99.90
4856;DHT22;2442;48.676;7.986;2022-12-18T10:49:21;-5.90;99.90
4856;DHT22;2442;48.676;7.986;2022-12-18T10:51:49;-5.90;99.90
4856;DHT22;2442;48.676;7.986;2022-12-18T10:54:19;-5.90;99.90
4856;DHT22;2442;48.676;7.986;2022-12-18T10:56:48;-5.90;99.90
4856;DHT22;2442;48.676;7.986;2022-12-18T10:59:16;-5.80;99.90
4856;DHT22;2442;48.676;7.986;2022-12-18T11:01:49;-5.80;99.90
4856;DHT22;2442;48.676;7.986;2022-12-18T11:04:19;-6.00;99.90
4856;DHT22;2442;48.676;7.986;2022-12-18T11:06:58;-6.00;99.90
4856;DHT22;2442;48.676;7.986;2022-12-18T11:09:28;-5.90;99.90
4856;DHT22;2442;48.676;7.986;2022-12-18T11:11:58;-5.90;99.90
4856;DHT22;2442;48.676;7.986;2022-12-18T11:14:27;-5.90;99.90
4856;DHT22;2442;48.676;7.986;2022-12-18T11:16:55;-5.90;99.90
4856;DHT22;2442;48.676;7.986;2022-12-18T11:19:32;-5.90;99.90
4856;DHT22;2442;48.676;7.986;2022-12-18T11:22:01;-5.90;99.90
4856;DHT22;2442;48.676;7.986;2022-12-18T11:24:32;-5.80;99.90
4856;DHT22;2442;48.676;7.986;2022-12-18T11:27:01;-5.70;99.90
4856;DHT22;2442;48.676;7.986;2022-12-18T11:29:33;-5.70;99.90
4856;DHT22;2442;48.676;7.986;2022-12-18T11:32:21;-5.70;99.90
4856;DHT22;2442;48.676;7.986;2022-12-18T11:34:53;-5.60;99.90
4856;DHT22;2442;48.676;7.986;2022-12-18T11:37:23;-5.70;99.90
4856;DHT22;2442;48.676;7.986;2022-12-18T11:39:56;-5.70;99.90
4856;DHT22;2442;48.676;7.986;2022-12-18T11:42:30;-5.60;99.90
4856;DHT22;2442;48.676;7.986;2022-12-18T11:45:02;-5.70;99.90
4856;DHT22;2442;48.676;7.986;2022-12-18T11:47:38;-5.70;99.90
4856;DHT22;2442;48.676;7.986;2022-12-18T11:50:14;-5.60;99.90
4856;DHT22;2442;48.676;7.986;2022-12-18T11:52:42;-5.50;99.90
4856;DHT22;2442;48.676;7.986;2022-12-18T11:55:13;-5.50;99.90
4856;DHT22;2442;48.676;7.986;2022-12-18T11:57:51;-5.60;99.90
4856;DHT22;2442;48.676;7.986;2022-12-18T12:00:20;-5.50;99.90
4856;DHT22;2442;48.676;7.986;2022-12-18T12:06:07;-5.50;99.90
4856;DHT22;2442;48.676;7.986;2022-12-18T12:08:48;-5.50;99.90
4856;DHT22;2442;48.676;7.986;2022-12-18T12:11:25;-5.50;99.90
4856;DHT22;2442;48.676;7.986;2022-12-18T12:14:09;-5.60;99.90
4856;DHT22;2442;48.676;7.986;2022-12-18T12:16:45;-5.60;99.90
4856;DHT22;2442;48.676;7.986;2022-12-18T12:19:28;-5.60;99.90
4856;DHT22;2442;48.676;7.986;2022-12-18T12:22:05;-5.60;99.90
4856;DHT22;2442;48.676;7.986;2022-12-18T12:24:44;-5.50;99.90
4856;DHT22;2442;48.676;7.986;2022-12-18T12:27:22;-5.50;99.90
4856;DHT22;2442;48.676;7.986;2022-12-18T12:30:00;-5.40;99.90
4856;DHT22;2442;48.676;7.986;2022-12-18T12:32:46;-5.40;99.90
4856;DHT22;2442;48.676;7.986;2022-12-18T12:35:25;-5.30;99.90
4856;DHT22;2442;48.676;7.986;2022-12-18T12:38:08;-5.30;99.90
4856;DHT22;2442;48.676;7.986;2022-12-18T12:40:41;-5.20;99.90
4856;DHT22;2442;48.676;7.986;2022-12-18T12:43:21;-5.50;99.90
4856;DHT22;2442;48.676;7.986;2022-12-18T12:45:52;-5.50;99.90
4856;DHT22;2442;48.676;7.986;2022-12-18T12:48:27;-5.40;99.90
4856;DHT22;2442;48.676;7.986;2022-12-18T12:50:59;-5.40;99.90
4856;DHT22;2442;48.676;7.986;2022-12-18T12:53:30;-5.30;99.90
4856;DHT22;2442;48.676;7.986;2022-12-18T12:55:58;-5.20;99.90
4856;DHT22;2442;48.676;7.986;2022-12-18T12:58:33;-5.10;99.90
4856;DHT22;2442;48.676;7.986;2022-12-18T13:01:08;-5.10;99.90
4856;DHT22;2442;48.676;7.986;2022-12-18T13:03:44;-5.10;99.90
4856;DHT22;2442;48.676;7.986;2022-12-18T13:06:18;-5.10;99.90
4856;DHT22;2442;48.676;7.986;2022-12-18T13:08:55;-5.20;99.90
4856;DHT22;2442;48.676;7.986;2022-12-18T13:11:35;-5.10;99.90
4856;DHT22;2442;48.676;7.986;2022-12-18T13:14:23;-5.10;99.90
4856;DHT22;2442;48.676;7.986;2022-12-18T13:16:51;-5.30;99.90
4856;DHT22;2442;48.676;7.986;2022-12-18T13:19:26;-5.20;99.90
4856;DHT22;2442;48.676;7.986;2022-12-18T13:21:54;-5.40;99.90
4856;DHT22;2442;48.676;7.986;2022-12-18T13:24:25;-5.20;99.90
4856;DHT22;2442;48.676;7.986;2022-12-18T13:26:52;-5.30;99.90
4856;DHT22;2442;48.676;7.986;2022-12-18T13:29:43;-5.30;99.90
4856;DHT22;2442;48.676;7.986;2022-12-18T13:32:21;-5.20;99.90
4856;DHT22;2442;48.676;7.986;2022-12-18T13:34:49;-5.10;99.90
4856;DHT22;2442;48.676;7.986;2022-12-18T13:37:43;-5.10;99.90
4856;DHT22;2442;48.676;7.986;2022-12-18T13:43:27;-5.00;99.90
4856;DHT22;2442;48.676;7.986;2022-12-18T13:46:17;-5.20;99.90
4856;DHT22;2442;48.676;7.986;2022-12-18T13:49:00;-5.40;99.90
4856;DHT22;2442;48.676;7.986;2022-12-18T13:51:29;-5.40;99.90
4856;DHT22;2442;48.676;7.986;2022-12-18T13:53:59;-5.30;99.90
4856;DHT22;2442;48.676;7.986;2022-12-18T13:56:29;-5.40;99.90
4856;DHT22;2442;48.676;7.986;2022-12-18T13:59:14;-5.50;99.90
4856;DHT22;2442;48.676;7.986;2022-12-18T14:01:48;-5.50;99.90
4856;DHT22;2442;48.676;7.986;2022-12-18T14:04:25;-5.40;99.90
4856;DHT22;2442;48.676;7.986;2022-12-18T14:06:56;-5.30;99.90
4856;DHT22;2442;48.676;7.986;2022-12-18T14:09:26;-5.50;99.90
4856;DHT22;2442;48.676;7.986;2022-12-18T14:11:53;-5.50;99.90
4856;DHT22;2442;48.676;7.986;2022-12-18T14:14:44;-5.60;99.90
4856;DHT22;2442;48.676;7.986;2022-12-18T14:17:14;-5.60;99.90
4856;DHT22;2442;48.676;7.986;2022-12-18T14:19:43;-5.70;99.90
4856;DHT22;2442;48.676;7.986;2022-12-18T14:22:19;-5.70;99.90
4856;DHT22;2442;48.676;7.986;2022-12-18T14:24:47;-5.70;99.90
4856;DHT22;2442;48.676;7.986;2022-12-18T14:27:22;-5.60;99.90
4856;DHT22;2442;48.676;7.986;2022-12-18T14:29:49;-5.60;99.90
4856;DHT22;2442;48.676;7.986;2022-12-18T14:32:19;-5.50;99.90
4856;DHT22;2442;48.676;7.986;2022-12-18T14:34:47;-5.40;99.90
4856;DHT22;2442;48.676;7.986;2022-12-18T14:37:16;-5.40;99.90
4856;DHT22;2442;48.676;7.986;2022-12-18T14:39:53;-5.50;99.90
4856;DHT22;2442;48.676;7.986;2022-12-18T14:42:20;-5.50;99.90
4856;DHT22;2442;48.676;7.986;2022-12-18T14:44:47;-5.50;99.90
4856;DHT22;2442;48.676;7.986;2022-12-18T14:47:15;-5.60;99.90
4856;DHT22;2442;48.676;7.986;2022-12-18T14:49:43;-5.60;99.90
4856;DHT22;2442;48.676;7.986;2022-12-18T14:52:23;-5.60;99.90
4856;DHT22;2442;48.676;7.986;2022-12-18T14:54:52;-5.70;99.90
4856;DHT22;2442;48.676;7.986;2022-12-18T14:57:22;-5.70;99.90
4856;DHT22;2442;48.676;7.986;2022-12-18T14:59:49;-5.80;99.90
4856;DHT22;2442;48.676;7.986;2022-12-18T15:02:20;-5.70;99.90
4856;DHT22;2442;48.676;7.986;2022-12-18T15:04:59;-5.70;99.90
4856;DHT22;2442;48.676;7.986;2022-12-18T15:07:27;-5.80;99.90
4856;DHT22;2442;48.676;7.986;2022-12-18T15:10:11;-5.80;99.90
4856;DHT22;2442;48.676;7.986;2022-12-18T15:12:40;-5.90;99.90
4856;DHT22;2442;48.676;7.986;2022-12-18T15:15:44;-5.80;99.90
4856;DHT22;2442;48.676;7.986;2022-12-18T15:18:13;-5.80;99.90
4856;DHT22;2442;48.676;7.986;2022-12-18T15:20:45;-5.80;99.90
4856;DHT22;2442;48.676;7.986;2022-12-18T15:23:16;-5.80;99.90
4856;DHT22;2442;48.676;7.986;2022-12-18T15:25:43;-5.70;99.90
4856;DHT22;2442;48.676;7.986;2022-12-18T15:28:20;-5.70;99.90
4856;DHT22;2442;48.676;7.986;2022-12-18T15:31:06;-5.70;99.90
4856;DHT22;2442;48.676;7.986;2022-12-18T15:33:46;-5.70;99.90
4856;DHT22;2442;48.676;7.986;2022-12-18T15:36:30;-5.70;99.90
4856;DHT22;2442;48.676;7.986;2022-12-18T15:39:02;-5.60;99.90
4856;DHT22;2442;48.676;7.986;2022-12-18T15:41:31;-5.60;99.90
4856;DHT22;2442;48.676;7.986;2022-12-18T15:43:58;-5.50;99.90
4856;DHT22;2442;48.676;7.986;2022-12-18T15:46:25;-5.60;99.90
4856;DHT22;2442;48.676;7.986;2022-12-18T15:48:53;-5.60;99.90
4856;DHT22;2442;48.676;7.986;2022-12-18T15:51:22;-5.60;99.90
4856;DHT22;2442;48.676;7.986;2022-12-18T15:53:53;-5.60;99.90
4856;DHT22;2442;48.676;7.986;2022-12-18T15:56:21;-5.60;99.90
4856;DHT22;2442;48.676;7.986;2022-12-18T15:59:09;-5.70;99.90
4856;DHT22;2442;48.676;7.986;2022-12-18T16:01:37;-5.60;99.90
4856;DHT22;2442;48.676;7.986;2022-12-18T16:04:04;-5.70;99.90
4856;DHT22;2442;48.676;7.986;2022-12-18T16:06:31;-5.60;99.90
4856;DHT22;2442;48.676;7.986;2022-12-18T16:08:59;-5.70;99.90
4856;DHT22;2442;48.676;7.986;2022-12-18T16:11:28;-5.70;99.90
4856;DHT22;2442;48.676;7.986;2022-12-18T16:14:16;-5.80;99.90
4856;DHT22;2442;48.676;7.986;2022-12-18T16:16:43;-5.80;99.90
4856;DHT22;2442;48.676;7.986;2022-12-18T16:19:10;-5.80;99.90
4856;DHT22;2442;48.676;7.986;2022-12-18T16:21:37;-5.80;99.90
4856;DHT22;2442;48.676;7.986;2022-12-18T16:24:11;-5.80;99.90
4856;DHT22;2442;48.676;7.986;2022-12-18T16:26:39;-5.80;99.90
4856;DHT22;2442;48.676;7.986;2022-12-18T16:29:07;-5.80;99.90
4856;DHT22;2442;48.676;7.986;2022-12-18T16:31:34;-5.80;99.90